createdAt,value
2023-04-20T00:00:22.261Z,434.84
2023-04-20T00:03:28.978Z,424.73
2023-04-20T00:06:38.590Z,427.03
2023-04-20T00:09:44.440Z,432.92
2023-04-20T00:12:51.293Z,415.30
2023-04-20T00:15:57.281Z,398.45
2023-04-20T00:19:04.201Z,401.65
2023-04-20T00:22:12.694Z,419.01
2023-04-20T00:25:19.788Z,431.81
2023-04-20T00:28:25.778Z,433.89
2023-04-20T00:31:32.582Z,441.78
2023-04-20T00:34:38.584Z,457.61
2023-04-20T00:37:52.761Z,441.83
2023-04-20T00:40:59.059Z,441.77
2023-04-20T00:44:07.023Z,439.62
2023-04-20T00:47:13.129Z,438.27
2023-04-20T00:50:20.803Z,425.56
2023-04-20T00:53:29.404Z,437.59
2023-04-20T00:56:36.367Z,441.98
2023-04-20T00:59:56.475Z,459.70
2023-04-20T01:03:03.497Z,442.81
2023-04-20T01:06:11.316Z,444.70
2023-04-20T01:09:20.717Z,438.45
2023-04-20T01:12:26.675Z,443.13
2023-04-20T01:15:34.497Z,437.89
2023-04-20T01:18:48.702Z,487.46
2023-04-20T01:21:55.852Z,530.94
2023-04-20T01:25:16.820Z,457.81
2023-04-20T01:28:27.762Z,461.37
2023-04-20T01:31:34.126Z,463.55
2023-04-20T01:34:42.093Z,458.36
2023-04-20T01:37:50.161Z,456.23
2023-04-20T01:40:59.835Z,436.59
2023-04-20T01:44:06.823Z,441.72
2023-04-20T01:47:14.500Z,427.12
2023-04-20T01:50:20.711Z,438.14
2023-04-20T01:53:28.230Z,447.94
2023-04-20T01:56:36.711Z,447.15
2023-04-20T01:59:43.657Z,440.61
2023-04-20T02:02:51.648Z,430.41
2023-04-20T02:05:58.597Z,437.02
2023-04-20T02:09:09.511Z,440.12
2023-04-20T02:12:19.015Z,439.95
2023-04-20T02:15:27.027Z,453.94
2023-04-20T02:18:39.871Z,446.01
2023-04-20T02:21:45.902Z,444.86
2023-04-20T02:24:52.910Z,438.64
2023-04-20T02:28:01.432Z,440.99
2023-04-20T02:31:08.577Z,434.88
2023-04-20T02:34:14.584Z,434.72
2023-04-20T02:37:21.420Z,426.16
2023-04-20T02:40:27.566Z,413.41
2023-04-20T02:43:37.251Z,413.81
2023-04-20T02:46:50.090Z,412.71
2023-04-20T02:49:58.380Z,412.19
2023-04-20T02:53:08.834Z,403.14
2023-04-20T02:56:17.339Z,401.62
2023-04-20T02:59:33.030Z,396.03
2023-04-20T03:02:45.777Z,387.35
2023-04-20T03:05:53.078Z,382.03
2023-04-20T03:09:02.070Z,373.95
2023-04-20T03:12:26.917Z,377.15
2023-04-20T03:15:59.103Z,384.40
2023-04-20T03:19:13.955Z,390.79
2023-04-20T03:22:21.037Z,384.23
2023-04-20T03:25:32.876Z,390.05
2023-04-20T03:28:46.267Z,420.67
2023-04-20T03:32:00.639Z,421.63
2023-04-20T03:35:15.363Z,422.96
2023-04-20T03:38:21.519Z,456.58
2023-04-20T03:41:28.448Z,436.54
2023-04-20T03:44:34.316Z,414.96
2023-04-20T03:47:46.524Z,394.51
2023-04-20T03:50:52.651Z,393.42
2023-04-20T03:53:59.384Z,419.89
2023-04-20T03:57:06.387Z,423.78
2023-04-20T04:00:15.540Z,416.22
2023-04-20T04:03:27.297Z,404.45
2023-04-20T04:06:34.512Z,395.28
2023-04-20T04:09:40.385Z,382.98
2023-04-20T04:12:48.391Z,375.73
2023-04-20T04:15:54.698Z,373.04
2023-04-20T04:19:04.735Z,373.98
2023-04-20T04:22:11.855Z,395.18
2023-04-20T04:25:30.100Z,391.69
2023-04-20T04:28:36.278Z,385.04
2023-04-20T04:31:51.417Z,368.48
2023-04-20T04:35:01.655Z,362.83
2023-04-20T04:38:08.615Z,366.97
2023-04-20T04:41:16.388Z,373.73
2023-04-20T04:44:26.334Z,367.83
2023-04-20T04:47:32.798Z,364.68
2023-04-20T04:50:42.431Z,362.62
2023-04-20T04:53:49.930Z,356.29
2023-04-20T04:56:56.739Z,356.96
2023-04-20T05:00:02.739Z,338.38
2023-04-20T05:03:09.876Z,339.45
2023-04-20T05:06:18.777Z,350.91
2023-04-20T05:09:25.914Z,336.29
2023-04-20T05:12:31.819Z,325.64
2023-04-20T05:15:39.008Z,326.88
2023-04-20T05:18:45.142Z,324.67
2023-04-20T05:21:54.808Z,322.79
2023-04-20T05:25:00.828Z,319.07
2023-04-20T05:28:08.039Z,320.60
2023-04-20T05:31:14.090Z,310.59
2023-04-20T05:34:20.946Z,319.31
2023-04-20T05:37:29.746Z,320.18
2023-04-20T05:40:37.656Z,314.14
2023-04-20T05:43:43.618Z,299.19
2023-04-20T05:46:50.764Z,303.64
2023-04-20T05:49:56.635Z,306.83
2023-04-20T05:53:06.193Z,289.94
2023-04-20T05:56:12.282Z,268.79
2023-04-20T05:59:19.990Z,269.65
2023-04-20T06:02:26.633Z,267.36
2023-04-20T06:05:34.279Z,263.72
2023-04-20T06:08:43.042Z,277.94
2023-04-20T06:11:49.820Z,282.64
2023-04-20T06:14:56.079Z,276.44
2023-04-20T06:18:02.954Z,283.41
2023-04-20T06:21:09.180Z,278.34
2023-04-20T06:24:18.571Z,284.47
2023-04-20T06:27:24.591Z,282.21
2023-04-20T06:30:31.322Z,269.84
2023-04-20T06:33:37.392Z,250.79
2023-04-20T06:36:46.566Z,235.58
2023-04-20T06:39:57.621Z,233.60
2023-04-20T06:43:04.510Z,242.44
2023-04-20T06:46:10.508Z,239.70
2023-04-20T06:49:17.637Z,236.74
2023-04-20T06:52:24.336Z,238.16
2023-04-20T06:55:34.102Z,243.73
2023-04-20T06:58:40.222Z,237.11
2023-04-20T07:01:49.898Z,215.97
2023-04-20T07:04:56.018Z,215.96
2023-04-20T07:08:02.950Z,220.66
2023-04-20T07:11:11.751Z,227.52
2023-04-20T07:14:18.536Z,223.76
2023-04-20T07:17:24.894Z,231.11
2023-04-20T07:20:31.833Z,231.20
2023-04-20T07:23:37.877Z,243.92
2023-04-20T07:26:47.427Z,231.48
2023-04-20T07:29:53.274Z,231.48
2023-04-20T07:33:08.959Z,205.14
2023-04-20T07:36:17.264Z,202.50
2023-04-20T07:39:25.780Z,195.96
2023-04-20T07:42:39.767Z,194.57
2023-04-20T07:45:46.700Z,193.69
2023-04-20T07:48:53.004Z,190.60
2023-04-20T07:52:12.981Z,187.57
2023-04-20T07:55:22.900Z,188.33
2023-04-20T07:58:32.270Z,184.71
2023-04-20T08:01:43.568Z,191.90
2023-04-20T08:04:57.329Z,202.22
2023-04-20T08:08:10.528Z,208.91
2023-04-20T08:11:17.354Z,203.76
2023-04-20T08:14:26.740Z,198.71
2023-04-20T08:17:39.984Z,193.58
2023-04-20T08:21:00.096Z,183.43
2023-04-20T08:24:19.108Z,189.77
2023-04-20T08:27:25.134Z,189.98
2023-04-20T08:30:34.811Z,185.71
2023-04-20T08:33:45.057Z,187.37
2023-04-20T08:36:52.229Z,178.15
2023-04-20T08:39:58.145Z,170.92
2023-04-20T08:43:05.007Z,176.29
2023-04-20T08:46:14.013Z,171.82
2023-04-20T08:49:22.601Z,182.57
2023-04-20T08:52:38.988Z,176.15
2023-04-20T08:55:46.121Z,162.95
2023-04-20T08:58:52.679Z,164.44
2023-04-20T09:02:13.987Z,169.44
2023-04-20T09:05:28.290Z,159.13
2023-04-20T09:08:42.916Z,155.84
2023-04-20T09:11:49.786Z,166.54
2023-04-20T09:14:57.345Z,160.71
2023-04-20T09:18:17.870Z,160.37
2023-04-20T09:21:25.192Z,164.48
2023-04-20T09:24:44.310Z,160.78
2023-04-20T09:28:00.272Z,163.00
2023-04-20T09:31:06.359Z,153.56
2023-04-20T09:34:16.852Z,149.07
2023-04-20T09:37:23.218Z,149.08
2023-04-20T09:40:30.360Z,136.15
2023-04-20T09:43:39.375Z,129.47
2023-04-20T09:46:48.341Z,120.29
2023-04-20T09:50:00.148Z,119.77
2023-04-20T09:53:09.550Z,129.20
2023-04-20T09:56:18.562Z,137.30
2023-04-20T09:59:25.510Z,128.19
2023-04-20T10:02:31.820Z,118.91
2023-04-20T10:05:43.158Z,111.47
2023-04-20T10:08:49.403Z,102.64
2023-04-20T10:11:59.593Z,109.84
2023-04-20T10:15:06.054Z,125.96
2023-04-20T10:18:21.205Z,117.05
2023-04-20T10:21:36.997Z,109.78
2023-04-20T10:24:55.549Z,105.15
2023-04-20T10:28:06.426Z,145.06
2023-04-20T10:31:15.802Z,135.91
2023-04-20T10:34:33.123Z,108.53
2023-04-20T10:37:52.305Z,103.62
2023-04-20T10:40:58.431Z,106.23
2023-04-20T10:44:13.366Z,108.21
2023-04-20T10:47:19.574Z,109.21
2023-04-20T10:50:35.618Z,115.34
2023-04-20T10:53:52.732Z,113.35
2023-04-20T10:56:59.522Z,111.78
2023-04-20T11:00:19.587Z,112.22
2023-04-20T11:03:26.636Z,113.60
2023-04-20T11:06:32.911Z,114.18
2023-04-20T11:09:43.315Z,119.59
2023-04-20T11:12:49.233Z,110.11
2023-04-20T11:15:56.149Z,107.10
2023-04-20T11:19:02.107Z,90.94
2023-04-20T11:22:10.086Z,87.41
2023-04-20T11:25:20.408Z,86.37
2023-04-20T11:28:34.821Z,78.96
2023-04-20T11:31:47.123Z,78.50
2023-04-20T11:35:07.194Z,77.67
2023-04-20T11:38:13.653Z,81.73
2023-04-20T11:41:23.530Z,87.43
2023-04-20T11:44:30.212Z,80.32
2023-04-20T11:47:38.181Z,77.87
2023-04-20T11:50:44.273Z,74.72
2023-04-20T11:53:50.981Z,103.63
2023-04-20T11:57:00.410Z,104.31
2023-04-20T12:00:13.454Z,106.43
2023-04-20T12:03:26.142Z,103.99
2023-04-20T12:06:36.505Z,106.44
2023-04-20T12:09:42.496Z,93.26
2023-04-20T12:12:52.468Z,89.83
2023-04-20T12:15:58.463Z,89.86
2023-04-20T12:19:09.323Z,83.12
2023-04-20T12:22:17.809Z,72.60
2023-04-20T12:25:30.835Z,71.96
2023-04-20T12:28:39.881Z,70.70
2023-04-20T12:31:46.829Z,75.80
2023-04-20T12:34:52.943Z,83.71
2023-04-20T12:38:01.603Z,81.39
2023-04-20T12:41:17.814Z,89.12
2023-04-20T12:44:27.440Z,91.55
2023-04-20T12:47:33.574Z,94.52
2023-04-20T12:50:40.440Z,93.78
2023-04-20T12:53:46.712Z,98.82
2023-04-20T12:56:56.421Z,104.67
2023-04-20T13:00:14.451Z,110.79
2023-04-20T13:03:21.670Z,106.30
2023-04-20T13:06:28.276Z,112.15
2023-04-20T13:09:35.000Z,112.24
2023-04-20T13:12:41.078Z,116.42
2023-04-20T13:15:50.482Z,125.80
2023-04-20T13:18:56.736Z,132.66
2023-04-20T13:22:04.151Z,124.03
2023-04-20T13:25:11.482Z,105.71
2023-04-20T13:28:18.452Z,98.09
2023-04-20T13:31:27.072Z,89.01
2023-04-20T13:34:34.016Z,92.89
2023-04-20T13:37:40.020Z,89.43
2023-04-20T13:40:47.024Z,86.58
2023-04-20T13:43:53.546Z,78.93
2023-04-20T13:47:07.899Z,73.48
2023-04-20T13:50:14.642Z,66.00
2023-04-20T13:53:22.247Z,60.63
2023-04-20T13:56:28.281Z,58.94
2023-04-20T13:59:35.226Z,58.98
2023-04-20T14:02:43.925Z,57.72
2023-04-20T14:05:51.892Z,55.88
2023-04-20T14:08:58.243Z,55.26
2023-04-20T14:12:05.185Z,59.27
2023-04-20T14:15:13.687Z,70.79
2023-04-20T14:18:26.624Z,70.66
2023-04-20T14:21:33.045Z,61.78
2023-04-20T14:24:41.039Z,62.97
2023-04-20T14:27:46.939Z,71.30
2023-04-20T14:30:54.250Z,88.94
2023-04-20T14:34:13.457Z,79.99
2023-04-20T14:37:20.498Z,72.43
2023-04-20T14:40:34.496Z,61.71
2023-04-20T14:43:41.539Z,54.98
2023-04-20T14:46:47.654Z,50.38
2023-04-20T14:50:01.504Z,49.98
2023-04-20T14:53:07.647Z,47.48
2023-04-20T14:56:14.510Z,43.19
2023-04-20T14:59:20.623Z,44.67
2023-04-20T15:02:27.547Z,46.59
2023-04-20T15:05:37.458Z,44.66
2023-04-20T15:09:04.976Z,44.99
2023-04-20T15:12:16.556Z,46.27
2023-04-20T15:15:23.392Z,45.06
2023-04-20T15:18:29.437Z,48.50
2023-04-20T15:21:43.484Z,47.53
2023-04-20T15:24:50.627Z,45.17
2023-04-20T15:28:11.644Z,50.01
2023-04-20T15:31:20.629Z,44.79
2023-04-20T15:34:27.402Z,41.39
2023-04-20T15:37:36.184Z,42.38
2023-04-20T15:40:43.051Z,40.10
2023-04-20T15:43:49.199Z,40.05
2023-04-20T15:46:56.465Z,41.70
2023-04-20T15:50:04.519Z,37.97
2023-04-20T15:53:14.094Z,39.35
2023-04-20T15:56:29.157Z,38.61
2023-04-20T15:59:38.337Z,37.85
2023-04-20T16:02:55.124Z,40.13
2023-04-20T16:06:03.581Z,37.49
2023-04-20T16:09:12.125Z,39.71
2023-04-20T16:12:27.139Z,42.62
2023-04-20T16:15:34.064Z,38.63
2023-04-20T16:18:41.194Z,37.94
2023-04-20T16:21:47.216Z,41.65
2023-04-20T16:24:57.049Z,39.90
2023-04-20T16:28:03.705Z,39.76
2023-04-20T16:31:10.761Z,38.97
2023-04-20T16:34:17.550Z,39.50
2023-04-20T16:37:29.579Z,41.15
2023-04-20T16:40:38.180Z,41.59
2023-04-20T16:43:45.133Z,40.17
2023-04-20T16:46:52.986Z,42.94
2023-04-20T16:50:06.203Z,44.05
2023-04-20T16:53:18.430Z,45.40
2023-04-20T16:56:27.835Z,44.62
2023-04-20T16:59:33.936Z,45.24
2023-04-20T17:02:47.308Z,45.71
2023-04-20T17:05:55.647Z,52.62
2023-04-20T17:09:07.324Z,50.33
2023-04-20T17:12:15.948Z,47.75
2023-04-20T17:15:22.867Z,51.00
2023-04-20T17:18:29.052Z,49.87
2023-04-20T17:21:35.887Z,48.45
2023-04-20T17:24:41.851Z,51.03
2023-04-20T17:27:52.100Z,57.18
2023-04-20T17:30:59.873Z,53.93
2023-04-20T17:34:07.364Z,55.85
2023-04-20T17:37:13.306Z,59.58
2023-04-20T17:40:20.194Z,68.43
2023-04-20T17:43:40.673Z,71.75
2023-04-20T17:46:47.511Z,73.65
2023-04-20T17:49:53.878Z,77.94
2023-04-20T17:53:11.268Z,80.86
2023-04-20T17:56:17.278Z,86.12
2023-04-20T17:59:32.529Z,87.29
2023-04-20T18:02:38.768Z,85.92
2023-04-20T18:05:45.716Z,92.48
2023-04-20T18:08:51.661Z,89.38
2023-04-20T18:11:58.400Z,92.17
2023-04-20T18:15:09.183Z,93.05
2023-04-20T18:18:22.437Z,94.44
2023-04-20T18:21:29.934Z,93.92
2023-04-20T18:24:36.985Z,91.48
2023-04-20T18:27:42.921Z,87.57
2023-04-20T18:30:59.024Z,86.64
2023-04-20T18:34:17.126Z,88.10
2023-04-20T18:37:24.094Z,87.87
2023-04-20T18:40:30.064Z,89.58
2023-04-20T18:43:39.178Z,96.00
2023-04-20T18:46:48.260Z,104.75
2023-04-20T18:49:55.239Z,117.92
2023-04-20T18:53:01.120Z,130.57
2023-04-20T18:56:10.161Z,133.30
2023-04-20T18:59:16.445Z,127.06
2023-04-20T19:02:27.287Z,124.83
2023-04-20T19:05:33.401Z,114.47
2023-04-20T19:08:40.249Z,110.66
2023-04-20T19:11:46.513Z,113.06
2023-04-20T19:15:04.469Z,118.93
2023-04-20T19:18:13.179Z,135.32
2023-04-20T19:21:32.415Z,155.64
2023-04-20T19:24:38.567Z,155.08
2023-04-20T19:27:45.606Z,180.09
2023-04-20T19:30:51.877Z,193.82
2023-04-20T19:34:01.247Z,219.56
2023-04-20T19:37:09.316Z,219.22
2023-04-20T19:40:16.584Z,253.61
2023-04-20T19:43:25.057Z,253.22
2023-04-20T19:46:36.307Z,249.29
2023-04-20T19:49:44.995Z,241.52
2023-04-20T19:52:51.790Z,243.66
2023-04-20T19:55:57.931Z,245.72
2023-04-20T19:59:05.031Z,263.89
2023-04-20T20:02:11.221Z,279.60
2023-04-20T20:05:21.107Z,264.76
2023-04-20T20:08:27.127Z,267.10
2023-04-20T20:11:33.854Z,304.65
2023-04-20T20:14:40.079Z,307.74
2023-04-20T20:17:48.032Z,268.46
2023-04-20T20:20:56.627Z,289.74
2023-04-20T20:24:03.379Z,306.65
2023-04-20T20:27:09.526Z,298.10
2023-04-20T20:30:19.485Z,289.98
2023-04-20T20:33:26.372Z,276.81
2023-04-20T20:36:36.394Z,270.43
2023-04-20T20:39:43.340Z,253.82
2023-04-20T20:42:50.804Z,259.34
2023-04-20T20:45:56.750Z,262.24
2023-04-20T20:49:03.548Z,274.09
2023-04-20T20:52:12.410Z,284.50
2023-04-20T20:55:19.642Z,268.26
2023-04-20T20:58:25.693Z,258.07
2023-04-20T21:01:46.940Z,269.59
2023-04-20T21:05:10.228Z,263.43
2023-04-20T21:08:20.404Z,266.39
2023-04-20T21:11:26.764Z,257.94
2023-04-20T21:14:33.557Z,256.93
2023-04-20T21:17:39.695Z,248.77
2023-04-20T21:20:46.625Z,256.29
2023-04-20T21:23:55.894Z,265.14
2023-04-20T21:27:03.221Z,304.40
2023-04-20T21:30:10.770Z,271.37
2023-04-20T21:33:17.763Z,250.08
2023-04-20T21:36:31.217Z,234.27
2023-04-20T21:39:40.757Z,228.34
2023-04-20T21:42:49.436Z,231.28
2023-04-20T21:45:56.274Z,216.24
2023-04-20T21:49:02.860Z,206.54
2023-04-20T21:52:12.655Z,217.39
2023-04-20T21:55:21.218Z,229.88
2023-04-20T21:58:28.047Z,240.02
2023-04-20T22:01:34.197Z,281.69
2023-04-20T22:04:41.657Z,321.58
2023-04-20T22:07:48.190Z,302.75
2023-04-20T22:10:59.918Z,289.06
2023-04-20T22:14:06.273Z,260.28
2023-04-20T22:17:14.762Z,292.26
2023-04-20T22:20:21.014Z,331.68
2023-04-20T22:23:27.842Z,262.72
2023-04-20T22:26:36.517Z,228.42
2023-04-20T22:29:43.330Z,214.93
2023-04-20T22:32:49.391Z,219.79
2023-04-20T22:35:56.254Z,208.60
2023-04-20T22:39:02.325Z,202.09
2023-04-20T22:42:11.814Z,210.53
2023-04-20T22:45:20.534Z,233.21
2023-04-20T22:48:27.431Z,222.50
2023-04-20T22:51:33.440Z,200.11
2023-04-20T22:54:40.743Z,188.36
2023-04-20T22:57:49.302Z,182.37
2023-04-20T23:00:56.129Z,198.63
2023-04-20T23:04:02.235Z,199.26
2023-04-20T23:07:11.947Z,197.62
2023-04-20T23:10:19.449Z,200.19
2023-04-20T23:13:29.141Z,208.27
2023-04-20T23:16:35.360Z,215.06
2023-04-20T23:19:42.175Z,202.66
2023-04-20T23:22:48.009Z,200.90
2023-04-20T23:26:01.359Z,196.39
2023-04-20T23:29:21.359Z,196.31
2023-04-20T23:32:29.955Z,203.01
2023-04-20T23:35:38.969Z,205.23
2023-04-20T23:38:46.802Z,206.64
2023-04-20T23:41:52.700Z,202.73
2023-04-20T23:45:02.086Z,214.39
2023-04-20T23:48:17.979Z,210.14
2023-04-20T23:51:24.919Z,231.88
2023-04-20T23:54:33.101Z,239.77
2023-04-20T23:57:40.277Z,249.96
